PHKAX EHLE-EHRD
Flight info
| Callsign | PHKAX |
|---|---|
| Flight time | 0h 35m |
| Altitude | 1500 |
| Route | EHLEB DCT EHRDR |
| Aircraft | P28A/L-SD/L |
Departure
| Time | 2026-04-27 16:16 |
|---|---|
| Airport | Lelystad Airport (EHLE) |
Arrival
| Time | 2026-04-27 16:51 |
|---|---|
| Airport | Rotterdam The Hague Airport (EHRD) |
| Time | Latitude | Longitude | Altitude | Speed | Heading |
|---|---|---|---|---|---|
| 2026-04-27 16:08 | 52.45293 | 5.52157 | -11 ft | 0 kts | 47° |
| 2026-04-27 16:11 | 52.45293 | 5.52158 | -11 ft | 0 kts | 47° |
| 2026-04-27 16:12 | 52.45266 | 5.52133 | -11 ft | 11 kts | 316° |
| 2026-04-27 16:12 | 52.45331 | 5.52037 | -11 ft | 14 kts | 316° |
| 2026-04-27 16:12 | 52.45303 | 5.51817 | -11 ft | 17 kts | 227° |
| 2026-04-27 16:13 | 52.45216 | 5.51661 | -11 ft | 20 kts | 229° |
| 2026-04-27 16:13 | 52.45030 | 5.51308 | -11 ft | 16 kts | 231° |
| 2026-04-27 16:13 | 52.45051 | 5.51205 | -10 ft | 2 kts | 21° |
| 2026-04-27 16:14 | 52.45052 | 5.51206 | -10 ft | 0 kts | 21° |
| 2026-04-27 16:15 | 52.45151 | 5.51149 | -10 ft | 15 kts | 40° |
| 2026-04-27 16:15 | 52.45614 | 5.51985 | 87 ft | 68 kts | 45° |
| 2026-04-27 16:16 | 52.46257 | 5.53154 | 478 ft | 69 kts | 44° |
| 2026-04-27 16:16 | 52.46980 | 5.53228 | 732 ft | 88 kts | 313° |
| 2026-04-27 16:17 | 52.46807 | 5.51125 | 1119 ft | 106 kts | 242° |
| 2026-04-27 16:17 | 52.45879 | 5.48962 | 1373 ft | 119 kts | 232° |
| 2026-04-27 16:18 | 52.44810 | 5.46819 | 1371 ft | 129 kts | 232° |
| 2026-04-27 16:18 | 52.43809 | 5.44465 | 1274 ft | 126 kts | 241° |
| 2026-04-27 16:19 | 52.43356 | 5.43232 | 1144 ft | 130 kts | 241° |
| 2026-04-27 16:19 | 52.42918 | 5.41986 | 1133 ft | 122 kts | 242° |
| 2026-04-27 16:20 | 52.41653 | 5.38542 | 1249 ft | 120 kts | 238° |
| 2026-04-27 16:20 | 52.41197 | 5.37401 | 1331 ft | 118 kts | 238° |
| 2026-04-27 16:20 | 52.40300 | 5.35129 | 1329 ft | 116 kts | 237° |
| 2026-04-27 16:21 | 52.39873 | 5.34043 | 1315 ft | 111 kts | 238° |
| 2026-04-27 16:21 | 52.38599 | 5.30933 | 1358 ft | 111 kts | 237° |
| 2026-04-27 16:22 | 52.38135 | 5.29909 | 1361 ft | 113 kts | 231° |
| 2026-04-27 16:22 | 52.37067 | 5.28050 | 1334 ft | 111 kts | 226° |
| 2026-04-27 16:22 | 52.36519 | 5.27144 | 1340 ft | 113 kts | 227° |
| 2026-04-27 16:23 | 52.35963 | 5.26235 | 1349 ft | 112 kts | 226° |
| 2026-04-27 16:23 | 52.34852 | 5.24405 | 1379 ft | 114 kts | 227° |
| 2026-04-27 16:23 | 52.34290 | 5.23484 | 1381 ft | 114 kts | 226° |
| 2026-04-27 16:24 | 52.33729 | 5.22572 | 1373 ft | 114 kts | 225° |
| 2026-04-27 16:24 | 52.32641 | 5.20760 | 1336 ft | 110 kts | 229° |
| 2026-04-27 16:25 | 52.31558 | 5.18974 | 1333 ft | 111 kts | 225° |
| 2026-04-27 16:25 | 52.30466 | 5.17134 | 1366 ft | 115 kts | 226° |
| 2026-04-27 16:26 | 52.29336 | 5.15229 | 1407 ft | 119 kts | 227° |
| 2026-04-27 16:26 | 52.28184 | 5.13294 | 1383 ft | 117 kts | 226° |
| 2026-04-27 16:27 | 52.27033 | 5.11429 | 1360 ft | 117 kts | 225° |
| 2026-04-27 16:27 | 52.25245 | 5.08853 | 1348 ft | 112 kts | 216° |
| 2026-04-27 16:28 | 52.23952 | 5.07448 | 1327 ft | 111 kts | 214° |
| 2026-04-27 16:28 | 52.22633 | 5.06100 | 1326 ft | 111 kts | 213° |
| 2026-04-27 16:29 | 52.20690 | 5.04103 | 1305 ft | 107 kts | 212° |
| 2026-04-27 16:30 | 52.19433 | 5.02800 | 1290 ft | 107 kts | 212° |
| 2026-04-27 16:30 | 52.18191 | 5.01508 | 1298 ft | 107 kts | 211° |
| 2026-04-27 16:31 | 52.16280 | 4.99571 | 1303 ft | 109 kts | 212° |
| 2026-04-27 16:31 | 52.14974 | 4.98269 | 1305 ft | 112 kts | 213° |
| 2026-04-27 16:32 | 52.13646 | 4.96945 | 1289 ft | 112 kts | 212° |
| 2026-04-27 16:32 | 52.12973 | 4.96275 | 1283 ft | 114 kts | 213° |
| 2026-04-27 16:33 | 52.11603 | 4.94894 | 1274 ft | 116 kts | 212° |
| 2026-04-27 16:33 | 52.10920 | 4.94207 | 1268 ft | 115 kts | 211° |
| 2026-04-27 16:33 | 52.10235 | 4.93500 | 1298 ft | 118 kts | 213° |
| 2026-04-27 16:33 | 52.09530 | 4.92783 | 1291 ft | 120 kts | 213° |
| 2026-04-27 16:34 | 52.08830 | 4.92052 | 1291 ft | 120 kts | 212° |
| 2026-04-27 16:34 | 52.08129 | 4.91317 | 1289 ft | 120 kts | 213° |
| 2026-04-27 16:34 | 52.07423 | 4.90594 | 1305 ft | 121 kts | 212° |
| 2026-04-27 16:34 | 52.06709 | 4.89869 | 1302 ft | 121 kts | 213° |
| 2026-04-27 16:35 | 52.05984 | 4.89132 | 1287 ft | 123 kts | 212° |
| 2026-04-27 16:35 | 52.05264 | 4.88393 | 1278 ft | 122 kts | 213° |
| 2026-04-27 16:35 | 52.03847 | 4.86946 | 1283 ft | 120 kts | 213° |
| 2026-04-27 16:36 | 52.03144 | 4.86230 | 1298 ft | 122 kts | 212° |
| 2026-04-27 16:36 | 52.02419 | 4.85498 | 1318 ft | 124 kts | 212° |
| 2026-04-27 16:36 | 52.01747 | 4.84633 | 1313 ft | 123 kts | 223° |
| 2026-04-27 16:36 | 52.01115 | 4.83691 | 1304 ft | 123 kts | 224° |
| 2026-04-27 16:37 | 52.00498 | 4.82744 | 1307 ft | 122 kts | 225° |
| 2026-04-27 16:37 | 51.99895 | 4.81800 | 1318 ft | 120 kts | 225° |
| 2026-04-27 16:37 | 51.99284 | 4.80897 | 1292 ft | 118 kts | 222° |
| 2026-04-27 16:37 | 51.98655 | 4.80053 | 1318 ft | 117 kts | 220° |
| 2026-04-27 16:38 | 51.98024 | 4.79222 | 1317 ft | 117 kts | 219° |
| 2026-04-27 16:38 | 51.97386 | 4.78396 | 1320 ft | 118 kts | 220° |
| 2026-04-27 16:38 | 51.96739 | 4.77572 | 1319 ft | 119 kts | 218° |
| 2026-04-27 16:38 | 51.96090 | 4.76729 | 1313 ft | 120 kts | 220° |
| 2026-04-27 16:39 | 51.95445 | 4.75900 | 1311 ft | 117 kts | 219° |
| 2026-04-27 16:39 | 51.94802 | 4.75083 | 1318 ft | 118 kts | 220° |
| 2026-04-27 16:39 | 51.94155 | 4.74272 | 1324 ft | 117 kts | 219° |
| 2026-04-27 16:39 | 51.93520 | 4.73458 | 1324 ft | 116 kts | 219° |
| 2026-04-27 16:40 | 51.92880 | 4.72653 | 1326 ft | 117 kts | 220° |
| 2026-04-27 16:40 | 51.92229 | 4.71838 | 1328 ft | 119 kts | 219° |
| 2026-04-27 16:40 | 51.91582 | 4.71021 | 1304 ft | 117 kts | 219° |
| 2026-04-27 16:40 | 51.90953 | 4.70233 | 1306 ft | 115 kts | 219° |
| 2026-04-27 16:41 | 51.90313 | 4.69429 | 1326 ft | 118 kts | 218° |
| 2026-04-27 16:41 | 51.89681 | 4.68601 | 1426 ft | 112 kts | 220° |
| 2026-04-27 16:41 | 51.89087 | 4.67784 | 1516 ft | 111 kts | 221° |
| 2026-04-27 16:41 | 51.88494 | 4.66897 | 1506 ft | 120 kts | 224° |
| 2026-04-27 16:42 | 51.87894 | 4.65970 | 1544 ft | 120 kts | 224° |
| 2026-04-27 16:42 | 51.87280 | 4.65016 | 1502 ft | 124 kts | 226° |
| 2026-04-27 16:42 | 51.86661 | 4.64048 | 1563 ft | 123 kts | 226° |
| 2026-04-27 16:42 | 51.86109 | 4.63010 | 1553 ft | 120 kts | 242° |
| 2026-04-27 16:43 | 51.85864 | 4.61756 | 1520 ft | 114 kts | 273° |
| 2026-04-27 16:43 | 51.86094 | 4.60619 | 1552 ft | 107 kts | 304° |
| 2026-04-27 16:43 | 51.86537 | 4.59680 | 1576 ft | 105 kts | 318° |
| 2026-04-27 16:43 | 51.87039 | 4.58796 | 1520 ft | 110 kts | 319° |
| 2026-04-27 16:44 | 51.87580 | 4.57925 | 1505 ft | 109 kts | 323° |
| 2026-04-27 16:44 | 51.88194 | 4.57220 | 1486 ft | 108 kts | 337° |
| 2026-04-27 16:44 | 51.88897 | 4.56885 | 1495 ft | 102 kts | 348° |
| 2026-04-27 16:44 | 51.89524 | 4.56364 | 1486 ft | 104 kts | 325° |
| 2026-04-27 16:45 | 51.90044 | 4.55535 | 1465 ft | 102 kts | 321° |
| 2026-04-27 16:45 | 51.90620 | 4.54974 | 1482 ft | 95 kts | 347° |
| 2026-04-27 16:45 | 51.91259 | 4.54735 | 1461 ft | 95 kts | 352° |
| 2026-04-27 16:45 | 51.91896 | 4.54552 | 1545 ft | 94 kts | 354° |
| 2026-04-27 16:46 | 51.92539 | 4.54374 | 1605 ft | 93 kts | 353° |
| 2026-04-27 16:46 | 51.93194 | 4.54198 | 1647 ft | 95 kts | 353° |
| 2026-04-27 16:46 | 51.93848 | 4.54009 | 1674 ft | 97 kts | 353° |
| 2026-04-27 16:46 | 51.94504 | 4.53816 | 1624 ft | 96 kts | 353° |
| 2026-04-27 16:47 | 51.95124 | 4.53386 | 1582 ft | 100 kts | 323° |
| 2026-04-27 16:47 | 51.95388 | 4.52324 | 1537 ft | 111 kts | 277° |
| 2026-04-27 16:47 | 51.95153 | 4.51116 | 1515 ft | 113 kts | 252° |
| 2026-04-27 16:47 | 51.94889 | 4.49937 | 1508 ft | 110 kts | 254° |
| 2026-04-27 16:48 | 51.94671 | 4.48756 | 1458 ft | 109 kts | 259° |
| 2026-04-27 16:48 | 51.94489 | 4.47564 | 1462 ft | 112 kts | 263° |
| 2026-04-27 16:48 | 51.94330 | 4.46285 | 1475 ft | 119 kts | 265° |
| 2026-04-27 16:49 | 51.95023 | 4.44413 | 1479 ft | 96 kts | 335° |
| 2026-04-27 16:49 | 51.95604 | 4.43821 | 1449 ft | 98 kts | 333° |
| 2026-04-27 16:49 | 51.96166 | 4.43223 | 1347 ft | 98 kts | 327° |
| 2026-04-27 16:49 | 51.96406 | 4.42256 | 1106 ft | 97 kts | 267° |
| 2026-04-27 16:50 | 51.96065 | 4.41272 | 790 ft | 102 kts | 237° |
| 2026-04-27 16:50 | 51.95689 | 4.40415 | 587 ft | 90 kts | 230° |
| 2026-04-27 16:50 | 51.95109 | 4.40158 | 495 ft | 92 kts | 167° |
| 2026-04-27 16:50 | 51.94609 | 4.40771 | 394 ft | 90 kts | 109° |
| 2026-04-27 16:51 | 51.94700 | 4.41637 | 247 ft | 78 kts | 43° |
| 2026-04-27 16:51 | 51.94985 | 4.42275 | 158 ft | 65 kts | 48° |
| 2026-04-27 16:51 | 51.95229 | 4.42875 | 58 ft | 62 kts | 50° |
| 2026-04-27 16:51 | 51.95448 | 4.43420 | -4 ft | 45 kts | 58° |
| 2026-04-27 16:52 | 51.95516 | 4.43644 | -8 ft | 12 kts | 182° |
| 2026-04-27 16:52 | 51.95406 | 4.43522 | -6 ft | 27 kts | 222° |
| 2026-04-27 16:52 | 51.95241 | 4.43383 | -6 ft | 24 kts | 229° |
| 2026-04-27 16:52 | 51.95153 | 4.43159 | -6 ft | 23 kts | 241° |
| 2026-04-27 16:53 | 51.95072 | 4.42946 | -6 ft | 22 kts | 238° |
| 2026-04-27 16:53 | 51.94992 | 4.42742 | -6 ft | 20 kts | 232° |
| 2026-04-27 16:53 | 51.94901 | 4.42642 | -6 ft | 9 kts | 299° |
| 2026-04-27 16:53 | 51.94916 | 4.42642 | -6 ft | 1 kts | 59° |
| 2026-04-27 16:54 | 51.94917 | 4.42645 | -6 ft | 0 kts | 56° |